sensor_id;sensor_type;location;lat;lon;timestamp;P1;durP1;ratioP1;P2;durP2;ratioP2
8584;SDS011;7180;52.742;11.420;2022-09-24T00:01:34;11.77;;;11.07;;
8584;SDS011;7180;52.742;11.420;2022-09-24T00:04:00;12.27;;;11.57;;
8584;SDS011;7180;52.742;11.420;2022-09-24T00:06:26;12.00;;;11.20;;
8584;SDS011;7180;52.742;11.420;2022-09-24T00:08:52;11.60;;;10.90;;
8584;SDS011;7180;52.742;11.420;2022-09-24T00:11:19;12.03;;;11.23;;
8584;SDS011;7180;52.742;11.420;2022-09-24T00:13:49;12.07;;;11.37;;
8584;SDS011;7180;52.742;11.420;2022-09-24T00:16:15;11.97;;;11.17;;
8584;SDS011;7180;52.742;11.420;2022-09-24T00:18:41;12.70;;;11.90;;
8584;SDS011;7180;52.742;11.420;2022-09-24T00:21:13;12.30;;;11.50;;
8584;SDS011;7180;52.742;11.420;2022-09-24T00:23:39;11.97;;;11.20;;
8584;SDS011;7180;52.742;11.420;2022-09-24T00:26:04;11.93;;;11.13;;
8584;SDS011;7180;52.742;11.420;2022-09-24T00:28:49;12.13;;;11.23;;
8584;SDS011;7180;52.742;11.420;2022-09-24T00:31:14;12.27;;;11.47;;
8584;SDS011;7180;52.742;11.420;2022-09-24T00:33:39;11.50;;;10.77;;
8584;SDS011;7180;52.742;11.420;2022-09-24T00:36:04;11.45;;;10.75;;
8584;SDS011;7180;52.742;11.420;2022-09-24T00:38:32;11.80;;;11.10;;
8584;SDS011;7180;52.742;11.420;2022-09-24T00:40:58;11.43;;;10.73;;
8584;SDS011;7180;52.742;11.420;2022-09-24T00:43:34;12.23;;;11.47;;
8584;SDS011;7180;52.742;11.420;2022-09-24T00:48:25;11.88;;;11.18;;
8584;SDS011;7180;52.742;11.420;2022-09-24T00:50:50;11.80;;;11.10;;
8584;SDS011;7180;52.742;11.420;2022-09-24T00:53:17;12.07;;;11.30;;
8584;SDS011;7180;52.742;11.420;2022-09-24T00:55:44;11.97;;;11.27;;
8584;SDS011;7180;52.742;11.420;2022-09-24T00:58:11;12.10;;;11.30;;
8584;SDS011;7180;52.742;11.420;2022-09-24T01:00:37;11.40;;;10.70;;
8584;SDS011;7180;52.742;11.420;2022-09-24T01:03:07;12.00;;;11.20;;
8584;SDS011;7180;52.742;11.420;2022-09-24T01:05:34;11.70;;;10.90;;
8584;SDS011;7180;52.742;11.420;2022-09-24T01:08:00;11.67;;;10.97;;
8584;SDS011;7180;52.742;11.420;2022-09-24T01:13:22;11.77;;;11.07;;
8584;SDS011;7180;52.742;11.420;2022-09-24T01:15:54;12.30;;;11.60;;
8584;SDS011;7180;52.742;11.420;2022-09-24T01:18:27;12.43;;;11.73;;
8584;SDS011;7180;52.742;11.420;2022-09-24T01:29:02;12.77;;;11.93;;
8584;SDS011;7180;52.742;11.420;2022-09-24T01:31:34;12.90;;;12.10;;
8584;SDS011;7180;52.742;11.420;2022-09-24T01:34:00;12.80;;;12.00;;
8584;SDS011;7180;52.742;11.420;2022-09-24T01:36:29;13.27;;;12.30;;
8584;SDS011;7180;52.742;11.420;2022-09-24T01:38:56;12.47;;;11.67;;
8584;SDS011;7180;52.742;11.420;2022-09-24T01:41:22;12.60;;;11.80;;
8584;SDS011;7180;52.742;11.420;2022-09-24T01:43:48;13.20;;;12.33;;
8584;SDS011;7180;52.742;11.420;2022-09-24T01:46:13;13.23;;;12.33;;
8584;SDS011;7180;52.742;11.420;2022-09-24T01:48:40;12.40;;;11.60;;
8584;SDS011;7180;52.742;11.420;2022-09-24T01:51:16;12.37;;;11.57;;
8584;SDS011;7180;52.742;11.420;2022-09-24T01:53:45;13.20;;;12.10;;
8584;SDS011;7180;52.742;11.420;2022-09-24T01:56:18;12.97;;;12.03;;
8584;SDS011;7180;52.742;11.420;2022-09-24T02:01:14;12.53;;;11.73;;
8584;SDS011;7180;52.742;11.420;2022-09-24T02:03:43;12.03;;;11.23;;
8584;SDS011;7180;52.742;11.420;2022-09-24T02:06:30;12.50;;;11.70;;
8584;SDS011;7180;52.742;11.420;2022-09-24T02:08:57;12.17;;;11.47;;
8584;SDS011;7180;52.742;11.420;2022-09-24T02:11:23;12.63;;;11.83;;
8584;SDS011;7180;52.742;11.420;2022-09-24T02:14:03;12.07;;;11.37;;
8584;SDS011;7180;52.742;11.420;2022-09-24T02:16:35;12.47;;;11.67;;
8584;SDS011;7180;52.742;11.420;2022-09-24T02:19:03;12.30;;;11.60;;
8584;SDS011;7180;52.742;11.420;2022-09-24T02:21:29;12.67;;;11.87;;
8584;SDS011;7180;52.742;11.420;2022-09-24T02:23:58;13.60;;;12.57;;
8584;SDS011;7180;52.742;11.420;2022-09-24T02:26:24;13.10;;;12.10;;
8584;SDS011;7180;52.742;11.420;2022-09-24T02:28:49;13.13;;;12.33;;
8584;SDS011;7180;52.742;11.420;2022-09-24T02:31:17;12.63;;;11.83;;
8584;SDS011;7180;52.742;11.420;2022-09-24T02:33:43;12.53;;;11.83;;
8584;SDS011;7180;52.742;11.420;2022-09-24T02:36:28;12.97;;;12.17;;
8584;SDS011;7180;52.742;11.420;2022-09-24T02:38:54;12.90;;;12.00;;
8584;SDS011;7180;52.742;11.420;2022-09-24T02:41:19;12.67;;;11.87;;
8584;SDS011;7180;52.742;11.420;2022-09-24T02:43:48;13.10;;;12.30;;
8584;SDS011;7180;52.742;11.420;2022-09-24T02:46:13;13.37;;;12.53;;
8584;SDS011;7180;52.742;11.420;2022-09-24T02:48:38;13.20;;;12.20;;
8584;SDS011;7180;52.742;11.420;2022-09-24T02:51:03;13.48;;;12.60;;
8584;SDS011;7180;52.742;11.420;2022-09-24T02:53:29;13.77;;;12.80;;
8584;SDS011;7180;52.742;11.420;2022-09-24T02:55:54;13.17;;;12.17;;
8584;SDS011;7180;52.742;11.420;2022-09-24T02:58:20;13.18;;;12.38;;
8584;SDS011;7180;52.742;11.420;2022-09-24T03:00:45;12.93;;;12.13;;
8584;SDS011;7180;52.742;11.420;2022-09-24T03:03:10;12.93;;;12.13;;
8584;SDS011;7180;52.742;11.420;2022-09-24T03:05:35;13.25;;;12.35;;
8584;SDS011;7180;52.742;11.420;2022-09-24T03:08:00;13.87;;;12.97;;
8584;SDS011;7180;52.742;11.420;2022-09-24T03:10:25;13.00;;;12.10;;
8584;SDS011;7180;52.742;11.420;2022-09-24T03:12:51;13.33;;;12.50;;
8584;SDS011;7180;52.742;11.420;2022-09-24T03:15:16;13.68;;;12.70;;
8584;SDS011;7180;52.742;11.420;2022-09-24T03:17:41;13.23;;;12.43;;
8584;SDS011;7180;52.742;11.420;2022-09-24T03:20:06;12.88;;;12.07;;
8584;SDS011;7180;52.742;11.420;2022-09-24T03:22:31;13.33;;;12.33;;
8584;SDS011;7180;52.742;11.420;2022-09-24T03:24:57;13.02;;;12.23;;
8584;SDS011;7180;52.742;11.420;2022-09-24T03:27:22;12.88;;;12.07;;
8584;SDS011;7180;52.742;11.420;2022-09-24T03:29:47;13.33;;;12.53;;
8584;SDS011;7180;52.742;11.420;2022-09-24T03:32:31;13.97;;;12.97;;
8584;SDS011;7180;52.742;11.420;2022-09-24T03:34:57;13.03;;;12.13;;
8584;SDS011;7180;52.742;11.420;2022-09-24T03:37:22;13.77;;;12.77;;
8584;SDS011;7180;52.742;11.420;2022-09-24T03:39:48;13.65;;;12.75;;
8584;SDS011;7180;52.742;11.420;2022-09-24T03:42:13;13.15;;;12.35;;
8584;SDS011;7180;52.742;11.420;2022-09-24T03:44:38;13.13;;;12.23;;
8584;SDS011;7180;52.742;11.420;2022-09-24T03:47:03;13.35;;;12.55;;
8584;SDS011;7180;52.742;11.420;2022-09-24T03:49:28;13.00;;;12.10;;
8584;SDS011;7180;52.742;11.420;2022-09-24T03:51:53;13.70;;;12.80;;
8584;SDS011;7180;52.742;11.420;2022-09-24T03:54:19;13.67;;;12.77;;
8584;SDS011;7180;52.742;11.420;2022-09-24T03:56:44;13.70;;;12.80;;
8584;SDS011;7180;52.742;11.420;2022-09-24T03:59:09;13.10;;;12.30;;
8584;SDS011;7180;52.742;11.420;2022-09-24T04:01:34;13.40;;;12.50;;
8584;SDS011;7180;52.742;11.420;2022-09-24T04:04:01;13.60;;;12.70;;
8584;SDS011;7180;52.742;11.420;2022-09-24T04:06:27;13.83;;;13.03;;
8584;SDS011;7180;52.742;11.420;2022-09-24T04:08:52;13.95;;;12.95;;
8584;SDS011;7180;52.742;11.420;2022-09-24T04:11:17;13.80;;;12.90;;
8584;SDS011;7180;52.742;11.420;2022-09-24T04:13:42;13.60;;;12.80;;
8584;SDS011;7180;52.742;11.420;2022-09-24T04:16:08;13.83;;;12.93;;
8584;SDS011;7180;52.742;11.420;2022-09-24T04:18:33;13.50;;;12.70;;
8584;SDS011;7180;52.742;11.420;2022-09-24T04:20:58;14.33;;;13.37;;
8584;SDS011;7180;52.742;11.420;2022-09-24T04:23:24;14.13;;;13.23;;
8584;SDS011;7180;52.742;11.420;2022-09-24T04:25:49;14.43;;;13.38;;
8584;SDS011;7180;52.742;11.420;2022-09-24T04:28:14;14.07;;;13.18;;
8584;SDS011;7180;52.742;11.420;2022-09-24T04:30:39;13.60;;;12.73;;
8584;SDS011;7180;52.742;11.420;2022-09-24T04:33:05;13.23;;;12.43;;
8584;SDS011;7180;52.742;11.420;2022-09-24T04:35:30;13.50;;;12.60;;
8584;SDS011;7180;52.742;11.420;2022-09-24T04:37:56;15.03;;;13.93;;
8584;SDS011;7180;52.742;11.420;2022-09-24T04:40:23;14.57;;;13.60;;
8584;SDS011;7180;52.742;11.420;2022-09-24T04:42:48;14.67;;;13.57;;
8584;SDS011;7180;52.742;11.420;2022-09-24T04:45:13;14.68;;;13.65;;
8584;SDS011;7180;52.742;11.420;2022-09-24T04:47:41;14.27;;;13.33;;
8584;SDS011;7180;52.742;11.420;2022-09-24T04:50:07;14.67;;;13.67;;
8584;SDS011;7180;52.742;11.420;2022-09-24T04:52:33;14.73;;;13.83;;
8584;SDS011;7180;52.742;11.420;2022-09-24T04:54:58;14.90;;;13.90;;
8584;SDS011;7180;52.742;11.420;2022-09-24T04:57:24;14.63;;;13.53;;
8584;SDS011;7180;52.742;11.420;2022-09-24T04:59:49;15.37;;;14.37;;
8584;SDS011;7180;52.742;11.420;2022-09-24T05:02:14;15.70;;;14.70;;
8584;SDS011;7180;52.742;11.420;2022-09-24T05:04:40;14.80;;;13.80;;
8584;SDS011;7180;52.742;11.420;2022-09-24T05:07:06;14.97;;;13.97;;
8584;SDS011;7180;52.742;11.420;2022-09-24T05:09:31;15.68;;;14.57;;
8584;SDS011;7180;52.742;11.420;2022-09-24T05:11:57;15.27;;;14.27;;
8584;SDS011;7180;52.742;11.420;2022-09-24T05:14:22;15.50;;;14.43;;
8584;SDS011;7180;52.742;11.420;2022-09-24T05:16:47;16.08;;;14.88;;
8584;SDS011;7180;52.742;11.420;2022-09-24T05:19:12;16.42;;;15.23;;
8584;SDS011;7180;52.742;11.420;2022-09-24T05:21:37;16.63;;;15.43;;
8584;SDS011;7180;52.742;11.420;2022-09-24T05:24:03;16.83;;;15.63;;
8584;SDS011;7180;52.742;11.420;2022-09-24T05:26:28;16.70;;;15.50;;
8584;SDS011;7180;52.742;11.420;2022-09-24T05:29:11;16.60;;;15.50;;
8584;SDS011;7180;52.742;11.420;2022-09-24T05:31:37;16.07;;;14.87;;
8584;SDS011;7180;52.742;11.420;2022-09-24T05:34:02;16.10;;;15.00;;
8584;SDS011;7180;52.742;11.420;2022-09-24T05:36:27;15.63;;;14.50;;
8584;SDS011;7180;52.742;11.420;2022-09-24T05:38:53;15.60;;;14.60;;
8584;SDS011;7180;52.742;11.420;2022-09-24T05:41:18;16.85;;;15.73;;
8584;SDS011;7180;52.742;11.420;2022-09-24T05:43:43;16.73;;;15.63;;
8584;SDS011;7180;52.742;11.420;2022-09-24T05:46:08;16.67;;;15.53;;
8584;SDS011;7180;52.742;11.420;2022-09-24T05:48:33;17.02;;;15.73;;
8584;SDS011;7180;52.742;11.420;2022-09-24T05:51:02;17.47;;;16.17;;
8584;SDS011;7180;52.742;11.420;2022-09-24T05:53:27;16.53;;;15.43;;
8584;SDS011;7180;52.742;11.420;2022-09-24T05:55:52;17.10;;;16.00;;
8584;SDS011;7180;52.742;11.420;2022-09-24T05:58:18;16.73;;;15.53;;
8584;SDS011;7180;52.742;11.420;2022-09-24T06:00:43;17.00;;;15.90;;
8584;SDS011;7180;52.742;11.420;2022-09-24T06:03:11;16.80;;;15.70;;
8584;SDS011;7180;52.742;11.420;2022-09-24T06:05:36;17.17;;;15.97;;
8584;SDS011;7180;52.742;11.420;2022-09-24T06:08:02;16.73;;;15.53;;
8584;SDS011;7180;52.742;11.420;2022-09-24T06:10:27;17.17;;;15.97;;
8584;SDS011;7180;52.742;11.420;2022-09-24T06:12:53;17.33;;;16.03;;
8584;SDS011;7180;52.742;11.420;2022-09-24T06:15:18;17.17;;;15.90;;
8584;SDS011;7180;52.742;11.420;2022-09-24T06:17:44;17.20;;;16.00;;
8584;SDS011;7180;52.742;11.420;2022-09-24T06:20:10;17.37;;;16.17;;
8584;SDS011;7180;52.742;11.420;2022-09-24T06:22:35;17.83;;;16.43;;
8584;SDS011;7180;52.742;11.420;2022-09-24T06:25:00;18.88;;;17.58;;
8584;SDS011;7180;52.742;11.420;2022-09-24T06:27:25;17.77;;;16.57;;
8584;SDS011;7180;52.742;11.420;2022-09-24T06:29:50;18.38;;;16.95;;
8584;SDS011;7180;52.742;11.420;2022-09-24T06:32:15;17.17;;;15.97;;
8584;SDS011;7180;52.742;11.420;2022-09-24T06:34:43;17.37;;;16.17;;
8584;SDS011;7180;52.742;11.420;2022-09-24T06:37:09;18.20;;;16.87;;
8584;SDS011;7180;52.742;11.420;2022-09-24T06:39:34;18.38;;;17.05;;
8584;SDS011;7180;52.742;11.420;2022-09-24T06:41:59;17.92;;;16.73;;
8584;SDS011;7180;52.742;11.420;2022-09-24T06:44:24;17.67;;;16.38;;
8584;SDS011;7180;52.742;11.420;2022-09-24T06:46:51;17.13;;;15.93;;
8584;SDS011;7180;52.742;11.420;2022-09-24T06:49:16;17.77;;;16.50;;
8584;SDS011;7180;52.742;11.420;2022-09-24T06:51:44;17.10;;;15.80;;
8584;SDS011;7180;52.742;11.420;2022-09-24T06:54:10;18.37;;;17.07;;
8584;SDS011;7180;52.742;11.420;2022-09-24T06:56:35;17.77;;;16.57;;
8584;SDS011;7180;52.742;11.420;2022-09-24T06:59:00;18.77;;;17.23;;
8584;SDS011;7180;52.742;11.420;2022-09-24T07:01:25;18.03;;;16.73;;
8584;SDS011;7180;52.742;11.420;2022-09-24T07:03:50;18.45;;;17.15;;
8584;SDS011;7180;52.742;11.420;2022-09-24T07:06:15;18.65;;;17.35;;
8584;SDS011;7180;52.742;11.420;2022-09-24T07:08:41;18.20;;;16.90;;
8584;SDS011;7180;52.742;11.420;2022-09-24T07:11:06;18.00;;;16.70;;
8584;SDS011;7180;52.742;11.420;2022-09-24T07:13:32;17.80;;;16.50;;
8584;SDS011;7180;52.742;11.420;2022-09-24T07:15:57;17.73;;;16.43;;
8584;SDS011;7180;52.742;11.420;2022-09-24T07:18:22;17.37;;;16.07;;
8584;SDS011;7180;52.742;11.420;2022-09-24T07:20:51;17.13;;;15.82;;
8584;SDS011;7180;52.742;11.420;2022-09-24T07:23:17;17.63;;;16.33;;
8584;SDS011;7180;52.742;11.420;2022-09-24T07:25:43;17.83;;;16.50;;
8584;SDS011;7180;52.742;11.420;2022-09-24T07:28:10;17.47;;;16.17;;
8584;SDS011;7180;52.742;11.420;2022-09-24T07:30:35;17.20;;;16.00;;
8584;SDS011;7180;52.742;11.420;2022-09-24T07:33:01;17.53;;;16.20;;
8584;SDS011;7180;52.742;11.420;2022-09-24T07:35:26;17.40;;;16.10;;
8584;SDS011;7180;52.742;11.420;2022-09-24T07:37:55;17.03;;;15.73;;
8584;SDS011;7180;52.742;11.420;2022-09-24T07:40:21;17.27;;;16.00;;
8584;SDS011;7180;52.742;11.420;2022-09-24T07:42:47;16.80;;;15.60;;
8584;SDS011;7180;52.742;11.420;2022-09-24T07:45:12;17.60;;;16.30;;
8584;SDS011;7180;52.742;11.420;2022-09-24T07:47:37;16.70;;;15.50;;
8584;SDS011;7180;52.742;11.420;2022-09-24T07:50:03;17.10;;;15.80;;
8584;SDS011;7180;52.742;11.420;2022-09-24T07:52:28;17.50;;;16.17;;
8584;SDS011;7180;52.742;11.420;2022-09-24T07:54:54;17.08;;;15.88;;
8584;SDS011;7180;52.742;11.420;2022-09-24T07:57:19;16.87;;;15.67;;
8584;SDS011;7180;52.742;11.420;2022-09-24T07:59:44;17.15;;;15.93;;
8584;SDS011;7180;52.742;11.420;2022-09-24T08:02:18;16.97;;;15.77;;
8584;SDS011;7180;52.742;11.420;2022-09-24T08:04:44;17.67;;;16.27;;
8584;SDS011;7180;52.742;11.420;2022-09-24T08:07:10;16.67;;;15.47;;
8584;SDS011;7180;52.742;11.420;2022-09-24T08:09:35;16.30;;;15.00;;
8584;SDS011;7180;52.742;11.420;2022-09-24T08:12:00;15.17;;;14.07;;
8584;SDS011;7180;52.742;11.420;2022-09-24T08:14:26;15.50;;;14.33;;
8584;SDS011;7180;52.742;11.420;2022-09-24T08:16:51;15.63;;;14.52;;
8584;SDS011;7180;52.742;11.420;2022-09-24T08:19:16;17.42;;;16.13;;
8584;SDS011;7180;52.742;11.420;2022-09-24T08:21:41;16.80;;;15.55;;
8584;SDS011;7180;52.742;11.420;2022-09-24T08:24:06;15.90;;;14.80;;
8584;SDS011;7180;52.742;11.420;2022-09-24T08:26:32;17.77;;;16.48;;
8584;SDS011;7180;52.742;11.420;2022-09-24T08:28:57;18.17;;;16.77;;
8584;SDS011;7180;52.742;11.420;2022-09-24T08:31:22;17.33;;;16.07;;
8584;SDS011;7180;52.742;11.420;2022-09-24T08:33:47;16.53;;;15.33;;
8584;SDS011;7180;52.742;11.420;2022-09-24T08:36:14;15.87;;;14.77;;
8584;SDS011;7180;52.742;11.420;2022-09-24T08:38:39;16.50;;;15.40;;
8584;SDS011;7180;52.742;11.420;2022-09-24T08:41:14;16.70;;;15.50;;
8584;SDS011;7180;52.742;11.420;2022-09-24T08:44:03;16.10;;;15.00;;
8584;SDS011;7180;52.742;11.420;2022-09-24T08:46:34;15.97;;;14.87;;
8584;SDS011;7180;52.742;11.420;2022-09-24T08:49:33;15.83;;;14.73;;
8584;SDS011;7180;52.742;11.420;2022-09-24T08:52:06;16.13;;;15.03;;
8584;SDS011;7180;52.742;11.420;2022-09-24T08:54:38;15.53;;;14.43;;
8584;SDS011;7180;52.742;11.420;2022-09-24T08:57:08;14.67;;;13.67;;
8584;SDS011;7180;52.742;11.420;2022-09-24T08:59:35;14.43;;;13.53;;
8584;SDS011;7180;52.742;11.420;2022-09-24T09:02:15;14.60;;;13.60;;
8584;SDS011;7180;52.742;11.420;2022-09-24T09:07:34;15.50;;;14.30;;
8584;SDS011;7180;52.742;11.420;2022-09-24T09:10:08;14.80;;;13.70;;
8584;SDS011;7180;52.742;11.420;2022-09-24T09:12:36;14.87;;;13.87;;
8584;SDS011;7180;52.742;11.420;2022-09-24T09:15:06;14.10;;;13.10;;
8584;SDS011;7180;52.742;11.420;2022-09-24T09:17:42;15.77;;;14.60;;
8584;SDS011;7180;52.742;11.420;2022-09-24T09:20:14;14.77;;;13.77;;
8584;SDS011;7180;52.742;11.420;2022-09-24T09:22:43;14.93;;;13.90;;
8584;SDS011;7180;52.742;11.420;2022-09-24T09:25:14;14.30;;;13.40;;
8584;SDS011;7180;52.742;11.420;2022-09-24T09:27:40;14.67;;;13.57;;
8584;SDS011;7180;52.742;11.420;2022-09-24T09:30:06;15.80;;;14.60;;
8584;SDS011;7180;52.742;11.420;2022-09-24T09:42:57;14.13;;;13.13;;
8584;SDS011;7180;52.742;11.420;2022-09-24T09:45:29;14.13;;;13.17;;
8584;SDS011;7180;52.742;11.420;2022-09-24T09:47:56;13.63;;;12.73;;
8584;SDS011;7180;52.742;11.420;2022-09-24T09:52:50;13.23;;;12.33;;
8584;SDS011;7180;52.742;11.420;2022-09-24T09:55:25;12.40;;;11.60;;
8584;SDS011;7180;52.742;11.420;2022-09-24T09:57:51;12.70;;;11.90;;
8584;SDS011;7180;52.742;11.420;2022-09-24T10:00:27;12.97;;;12.07;;
8584;SDS011;7180;52.742;11.420;2022-09-24T10:02:56;12.63;;;11.83;;
8584;SDS011;7180;52.742;11.420;2022-09-24T10:05:21;12.60;;;11.80;;
8584;SDS011;7180;52.742;11.420;2022-09-24T10:07:49;13.00;;;12.10;;
8584;SDS011;7180;52.742;11.420;2022-09-24T10:10:18;12.80;;;11.95;;
8584;SDS011;7180;52.742;11.420;2022-09-24T10:12:44;13.17;;;12.27;;
8584;SDS011;7180;52.742;11.420;2022-09-24T10:17:38;14.63;;;13.47;;
8584;SDS011;7180;52.742;11.420;2022-09-24T10:20:07;12.97;;;12.07;;
8584;SDS011;7180;52.742;11.420;2022-09-24T10:22:33;12.50;;;11.60;;
8584;SDS011;7180;52.742;11.420;2022-09-24T10:24:59;12.57;;;11.77;;
8584;SDS011;7180;52.742;11.420;2022-09-24T10:29:56;12.10;;;11.30;;
8584;SDS011;7180;52.742;11.420;2022-09-24T10:32:40;12.27;;;11.38;;
8584;SDS011;7180;52.742;11.420;2022-09-24T10:35:22;11.53;;;10.83;;
8584;SDS011;7180;52.742;11.420;2022-09-24T10:37:58;11.13;;;10.43;;
8584;SDS011;7180;52.742;11.420;2022-09-24T10:40:37;11.50;;;10.77;;
8584;SDS011;7180;52.742;11.420;2022-09-24T10:43:03;11.63;;;10.83;;
8584;SDS011;7180;52.742;11.420;2022-09-24T10:45:46;11.30;;;10.60;;
8584;SDS011;7180;52.742;11.420;2022-09-24T10:50:49;11.50;;;10.70;;
8584;SDS011;7180;52.742;11.420;2022-09-24T10:56:03;11.27;;;10.47;;
8584;SDS011;7180;52.742;11.420;2022-09-24T11:01:30;10.63;;;9.93;;
8584;SDS011;7180;52.742;11.420;2022-09-24T11:09:35;10.90;;;10.20;;
8584;SDS011;7180;52.742;11.420;2022-09-24T11:20:13;12.03;;;11.13;;
8584;SDS011;7180;52.742;11.420;2022-09-24T11:22:59;12.50;;;11.50;;
8584;SDS011;7180;52.742;11.420;2022-09-24T11:25:30;13.03;;;12.13;;
8584;SDS011;7180;52.742;11.420;2022-09-24T11:30:31;12.80;;;11.97;;
8584;SDS011;7180;52.742;11.420;2022-09-24T11:38:13;13.13;;;12.23;;
8584;SDS011;7180;52.742;11.420;2022-09-24T11:43:30;11.37;;;10.67;;
8584;SDS011;7180;52.742;11.420;2022-09-24T11:48:31;12.67;;;11.77;;
8584;SDS011;7180;52.742;11.420;2022-09-24T11:55:54;12.60;;;11.60;;
8584;SDS011;7180;52.742;11.420;2022-09-24T12:03:18;14.07;;;13.07;;
8584;SDS011;7180;52.742;11.420;2022-09-24T12:05:45;14.10;;;13.10;;
8584;SDS011;7180;52.742;11.420;2022-09-24T12:10:41;12.47;;;11.67;;
8584;SDS011;7180;52.742;11.420;2022-09-24T12:15:58;12.17;;;11.37;;
8584;SDS011;7180;52.742;11.420;2022-09-24T12:18:26;12.57;;;11.67;;
8584;SDS011;7180;52.742;11.420;2022-09-24T12:20:54;12.23;;;11.33;;
8584;SDS011;7180;52.742;11.420;2022-09-24T12:23:23;12.40;;;11.60;;
8584;SDS011;7180;52.742;11.420;2022-09-24T12:25:51;11.50;;;10.70;;
8584;SDS011;7180;52.742;11.420;2022-09-24T12:28:18;12.77;;;11.87;;
8584;SDS011;7180;52.742;11.420;2022-09-24T12:31:03;13.57;;;12.57;;
8584;SDS011;7180;52.742;11.420;2022-09-24T12:33:53;13.10;;;12.20;;
8584;SDS011;7180;52.742;11.420;2022-09-24T12:39:06;13.63;;;12.63;;
8584;SDS011;7180;52.742;11.420;2022-09-24T12:41:43;14.43;;;13.43;;
8584;SDS011;7180;52.742;11.420;2022-09-24T12:51:40;13.70;;;12.70;;
8584;SDS011;7180;52.742;11.420;2022-09-24T12:56:48;14.60;;;13.60;;
8584;SDS011;7180;52.742;11.420;2022-09-24T12:59:26;15.50;;;14.30;;
8584;SDS011;7180;52.742;11.420;2022-09-24T13:01:51;13.83;;;12.83;;
8584;SDS011;7180;52.742;11.420;2022-09-24T13:06:43;16.30;;;14.95;;
8584;SDS011;7180;52.742;11.420;2022-09-24T13:11:48;13.17;;;12.20;;
8584;SDS011;7180;52.742;11.420;2022-09-24T13:16:39;14.00;;;13.03;;
8584;SDS011;7180;52.742;11.420;2022-09-24T13:19:17;13.93;;;13.00;;
8584;SDS011;7180;52.742;11.420;2022-09-24T13:21:51;14.10;;;13.20;;
8584;SDS011;7180;52.742;11.420;2022-09-24T13:24:23;13.33;;;12.43;;
8584;SDS011;7180;52.742;11.420;2022-09-24T13:26:49;13.97;;;13.07;;
8584;SDS011;7180;52.742;11.420;2022-09-24T13:29:22;13.30;;;12.40;;
8584;SDS011;7180;52.742;11.420;2022-09-24T13:31:48;13.73;;;12.83;;
8584;SDS011;7180;52.742;11.420;2022-09-24T13:34:21;13.73;;;12.83;;
8584;SDS011;7180;52.742;11.420;2022-09-24T13:37:03;13.30;;;12.33;;
8584;SDS011;7180;52.742;11.420;2022-09-24T13:39:51;13.07;;;12.17;;
8584;SDS011;7180;52.742;11.420;2022-09-24T13:42:18;12.80;;;11.90;;
8584;SDS011;7180;52.742;11.420;2022-09-24T13:44:49;13.43;;;12.53;;
8584;SDS011;7180;52.742;11.420;2022-09-24T13:49:43;13.68;;;12.68;;
8584;SDS011;7180;52.742;11.420;2022-09-24T13:52:21;14.10;;;13.20;;
8584;SDS011;7180;52.742;11.420;2022-09-24T13:54:54;13.60;;;12.70;;
8584;SDS011;7180;52.742;11.420;2022-09-24T13:57:22;13.80;;;12.87;;
8584;SDS011;7180;52.742;11.420;2022-09-24T13:59:47;13.87;;;12.87;;
8584;SDS011;7180;52.742;11.420;2022-09-24T14:02:21;14.10;;;13.00;;
8584;SDS011;7180;52.742;11.420;2022-09-24T14:04:47;13.57;;;12.67;;
8584;SDS011;7180;52.742;11.420;2022-09-24T14:07:18;13.07;;;12.07;;
8584;SDS011;7180;52.742;11.420;2022-09-24T14:09:44;13.60;;;12.50;;
8584;SDS011;7180;52.742;11.420;2022-09-24T14:12:12;13.20;;;12.20;;
8584;SDS011;7180;52.742;11.420;2022-09-24T14:14:42;14.17;;;13.27;;
8584;SDS011;7180;52.742;11.420;2022-09-24T14:17:13;14.27;;;13.27;;
8584;SDS011;7180;52.742;11.420;2022-09-24T14:19:39;13.87;;;12.83;;
8584;SDS011;7180;52.742;11.420;2022-09-24T14:22:05;14.07;;;13.07;;
8584;SDS011;7180;52.742;11.420;2022-09-24T14:24:32;13.47;;;12.57;;
8584;SDS011;7180;52.742;11.420;2022-09-24T14:26:59;13.43;;;12.53;;
8584;SDS011;7180;52.742;11.420;2022-09-24T14:29:33;13.27;;;12.37;;
8584;SDS011;7180;52.742;11.420;2022-09-24T14:32:00;13.03;;;12.13;;
8584;SDS011;7180;52.742;11.420;2022-09-24T14:34:32;13.00;;;12.00;;
8584;SDS011;7180;52.742;11.420;2022-09-24T14:36:59;12.93;;;12.03;;
8584;SDS011;7180;52.742;11.420;2022-09-24T14:39:30;13.23;;;12.23;;
8584;SDS011;7180;52.742;11.420;2022-09-24T14:42:06;12.93;;;12.03;;
8584;SDS011;7180;52.742;11.420;2022-09-24T14:44:32;13.57;;;12.57;;
8584;SDS011;7180;52.742;11.420;2022-09-24T14:46:57;13.83;;;12.90;;
8584;SDS011;7180;52.742;11.420;2022-09-24T14:49:24;13.40;;;12.50;;
8584;SDS011;7180;52.742;11.420;2022-09-24T14:51:50;13.90;;;12.83;;
8584;SDS011;7180;52.742;11.420;2022-09-24T14:54:38;14.20;;;13.27;;
8584;SDS011;7180;52.742;11.420;2022-09-24T14:59:35;13.60;;;12.70;;
8584;SDS011;7180;52.742;11.420;2022-09-24T15:02:20;13.53;;;12.63;;
8584;SDS011;7180;52.742;11.420;2022-09-24T15:04:47;14.23;;;13.23;;
8584;SDS011;7180;52.742;11.420;2022-09-24T15:07:17;13.40;;;12.50;;
8584;SDS011;7180;52.742;11.420;2022-09-24T15:09:49;14.03;;;13.03;;
8584;SDS011;7180;52.742;11.420;2022-09-24T15:12:25;13.77;;;12.80;;
8584;SDS011;7180;52.742;11.420;2022-09-24T15:17:39;15.37;;;14.27;;
8584;SDS011;7180;52.742;11.420;2022-09-24T15:20:04;14.50;;;13.57;;
8584;SDS011;7180;52.742;11.420;2022-09-24T15:22:30;14.33;;;13.30;;
8584;SDS011;7180;52.742;11.420;2022-09-24T15:24:55;14.77;;;13.67;;
8584;SDS011;7180;52.742;11.420;2022-09-24T15:27:22;14.87;;;13.77;;
8584;SDS011;7180;52.742;11.420;2022-09-24T15:29:48;14.70;;;13.63;;
8584;SDS011;7180;52.742;11.420;2022-09-24T15:32:15;14.73;;;13.73;;
8584;SDS011;7180;52.742;11.420;2022-09-24T15:34:40;14.30;;;13.30;;
8584;SDS011;7180;52.742;11.420;2022-09-24T15:37:07;14.63;;;13.63;;
8584;SDS011;7180;52.742;11.420;2022-09-24T15:39:33;15.07;;;14.00;;
8584;SDS011;7180;52.742;11.420;2022-09-24T15:41:58;14.33;;;13.33;;
8584;SDS011;7180;52.742;11.420;2022-09-24T15:44:25;15.70;;;14.40;;
8584;SDS011;7180;52.742;11.420;2022-09-24T15:46:50;15.73;;;14.63;;
8584;SDS011;7180;52.742;11.420;2022-09-24T15:49:19;15.90;;;14.73;;
8584;SDS011;7180;52.742;11.420;2022-09-24T15:51:46;16.03;;;14.83;;
8584;SDS011;7180;52.742;11.420;2022-09-24T15:54:11;15.30;;;14.20;;
8584;SDS011;7180;52.742;11.420;2022-09-24T15:56:36;15.05;;;13.95;;
8584;SDS011;7180;52.742;11.420;2022-09-24T15:59:06;14.27;;;13.27;;
8584;SDS011;7180;52.742;11.420;2022-09-24T16:01:33;14.87;;;13.77;;
8584;SDS011;7180;52.742;11.420;2022-09-24T16:03:58;15.60;;;14.30;;
8584;SDS011;7180;52.742;11.420;2022-09-24T16:06:23;15.45;;;14.43;;
8584;SDS011;7180;52.742;11.420;2022-09-24T16:08:48;15.03;;;13.97;;
8584;SDS011;7180;52.742;11.420;2022-09-24T16:11:13;15.00;;;13.88;;
8584;SDS011;7180;52.742;11.420;2022-09-24T16:13:39;15.20;;;14.10;;
8584;SDS011;7180;52.742;11.420;2022-09-24T16:16:04;15.82;;;14.52;;
8584;SDS011;7180;52.742;11.420;2022-09-24T16:18:30;16.97;;;15.77;;
8584;SDS011;7180;52.742;11.420;2022-09-24T16:20:55;17.98;;;16.58;;
8584;SDS011;7180;52.742;11.420;2022-09-24T16:23:20;21.00;;;19.20;;
8584;SDS011;7180;52.742;11.420;2022-09-24T16:25:52;21.23;;;19.43;;
8584;SDS011;7180;52.742;11.420;2022-09-24T16:28:18;20.60;;;18.80;;
8584;SDS011;7180;52.742;11.420;2022-09-24T16:30:43;19.53;;;17.93;;
8584;SDS011;7180;52.742;11.420;2022-09-24T16:33:09;19.00;;;17.23;;